California City, California
Current Conditions -  °F | °C
As of 3:15 PM on Tuesday 25 Nov 2014 (Local Time) from KMHV Reporting Station
Clear Clear  
Wind Chill: 64°   Ceiling: Unl
Heat Index: 64°   Visibility: 10mi
Dew Point:   Wind: 7mph
Humidity: 11%   Direction: 140°SE
Pressure: 30.38"   Gusts: NA
Location:  35.13°N, 117.98°W
Report Text: KMHV 252315Z AUTO 14006KT 10SM CLR 18/M13 A3038 RMK AO1
Loading
Personal Weather Stations






























Interactive Weather Map New forecast layout! Learn more

10-Day Weather Forecast

Advertisements
Track Severe Weather on mobile